sensor_id;sensor_type;location;lat;lon;timestamp;temperature;humidity
23102;DHT22;11720;51.214;22.574;2023-05-07T00:02:22;5.50;99.90
23102;DHT22;11720;51.214;22.574;2023-05-07T00:07:14;5.50;99.90
23102;DHT22;11720;51.214;22.574;2023-05-07T00:09:40;5.50;99.90
23102;DHT22;11720;51.214;22.574;2023-05-07T00:12:06;5.50;99.90
23102;DHT22;11720;51.214;22.574;2023-05-07T00:14:32;5.50;99.90
23102;DHT22;11720;51.214;22.574;2023-05-07T00:16:58;5.50;99.90
23102;DHT22;11720;51.214;22.574;2023-05-07T00:19:24;5.40;99.90
23102;DHT22;11720;51.214;22.574;2023-05-07T00:21:49;5.50;99.90
23102;DHT22;11720;51.214;22.574;2023-05-07T00:24:15;5.50;99.90
23102;DHT22;11720;51.214;22.574;2023-05-07T00:26:41;5.40;99.90
23102;DHT22;11720;51.214;22.574;2023-05-07T00:29:07;5.50;99.90
23102;DHT22;11720;51.214;22.574;2023-05-07T00:31:32;5.40;99.90
23102;DHT22;11720;51.214;22.574;2023-05-07T00:36:24;5.40;99.90
23102;DHT22;11720;51.214;22.574;2023-05-07T00:38:51;5.30;99.90
23102;DHT22;11720;51.214;22.574;2023-05-07T00:41:17;5.40;99.90
23102;DHT22;11720;51.214;22.574;2023-05-07T00:43:43;5.30;99.90
23102;DHT22;11720;51.214;22.574;2023-05-07T00:46:08;5.30;99.90
23102;DHT22;11720;51.214;22.574;2023-05-07T00:48:34;5.30;99.90
23102;DHT22;11720;51.214;22.574;2023-05-07T00:51:00;5.60;99.90
23102;DHT22;11720;51.214;22.574;2023-05-07T00:53:25;5.30;99.90
23102;DHT22;11720;51.214;22.574;2023-05-07T00:55:52;5.30;99.90
23102;DHT22;11720;51.214;22.574;2023-05-07T00:58:17;5.30;99.90
23102;DHT22;11720;51.214;22.574;2023-05-07T01:00:43;5.30;99.90
23102;DHT22;11720;51.214;22.574;2023-05-07T01:03:09;5.30;99.90
23102;DHT22;11720;51.214;22.574;2023-05-07T01:05:35;5.30;99.90
23102;DHT22;11720;51.214;22.574;2023-05-07T01:08:01;5.30;99.90
23102;DHT22;11720;51.214;22.574;2023-05-07T01:10:28;5.30;99.90
23102;DHT22;11720;51.214;22.574;2023-05-07T01:12:57;5.30;99.90
23102;DHT22;11720;51.214;22.574;2023-05-07T01:15:23;5.30;99.90
23102;DHT22;11720;51.214;22.574;2023-05-07T01:17:49;5.30;99.90
23102;DHT22;11720;51.214;22.574;2023-05-07T01:20:15;5.30;99.90
23102;DHT22;11720;51.214;22.574;2023-05-07T01:22:41;5.30;99.90
23102;DHT22;11720;51.214;22.574;2023-05-07T01:25:08;5.30;99.90
23102;DHT22;11720;51.214;22.574;2023-05-07T01:27:34;5.50;99.90
23102;DHT22;11720;51.214;22.574;2023-05-07T01:30:01;5.30;99.90
23102;DHT22;11720;51.214;22.574;2023-05-07T01:32:33;5.30;99.90
23102;DHT22;11720;51.214;22.574;2023-05-07T01:35:02;5.30;99.90
23102;DHT22;11720;51.214;22.574;2023-05-07T01:37:29;5.30;99.90
23102;DHT22;11720;51.214;22.574;2023-05-07T01:39:55;5.30;99.90
23102;DHT22;11720;51.214;22.574;2023-05-07T01:42:22;5.30;99.90
23102;DHT22;11720;51.214;22.574;2023-05-07T01:44:47;5.30;99.90
23102;DHT22;11720;51.214;22.574;2023-05-07T01:47:14;5.30;99.90
23102;DHT22;11720;51.214;22.574;2023-05-07T01:49:40;5.30;99.90
23102;DHT22;11720;51.214;22.574;2023-05-07T01:54:32;5.30;99.90
23102;DHT22;11720;51.214;22.574;2023-05-07T01:56:58;5.30;99.90
23102;DHT22;11720;51.214;22.574;2023-05-07T01:59:23;5.30;99.90
23102;DHT22;11720;51.214;22.574;2023-05-07T02:01:49;5.30;99.90
23102;DHT22;11720;51.214;22.574;2023-05-07T02:04:15;5.30;99.90
23102;DHT22;11720;51.214;22.574;2023-05-07T02:06:40;5.30;99.90
23102;DHT22;11720;51.214;22.574;2023-05-07T02:09:06;5.30;99.90
23102;DHT22;11720;51.214;22.574;2023-05-07T02:11:32;5.30;99.90
23102;DHT22;11720;51.214;22.574;2023-05-07T02:13:57;5.20;99.90
23102;DHT22;11720;51.214;22.574;2023-05-07T02:16:23;5.20;99.90
23102;DHT22;11720;51.214;22.574;2023-05-07T02:21:15;5.20;99.90
23102;DHT22;11720;51.214;22.574;2023-05-07T02:23:41;5.10;99.90
23102;DHT22;11720;51.214;22.574;2023-05-07T02:26:06;5.10;99.90
23102;DHT22;11720;51.214;22.574;2023-05-07T02:28:32;5.20;99.90
23102;DHT22;11720;51.214;22.574;2023-05-07T02:31:02;5.10;99.90
23102;DHT22;11720;51.214;22.574;2023-05-07T02:35:54;5.10;99.90
23102;DHT22;11720;51.214;22.574;2023-05-07T02:38:19;5.50;99.90
23102;DHT22;11720;51.214;22.574;2023-05-07T02:40:45;5.10;99.90
23102;DHT22;11720;51.214;22.574;2023-05-07T02:43:12;5.10;99.90
23102;DHT22;11720;51.214;22.574;2023-05-07T02:45:37;5.10;99.90
23102;DHT22;11720;51.214;22.574;2023-05-07T02:48:03;5.10;99.90
23102;DHT22;11720;51.214;22.574;2023-05-07T02:50:30;5.10;99.90
23102;DHT22;11720;51.214;22.574;2023-05-07T02:52:58;5.10;99.90
23102;DHT22;11720;51.214;22.574;2023-05-07T02:55:24;5.10;99.90
23102;DHT22;11720;51.214;22.574;2023-05-07T02:57:50;5.10;99.90
23102;DHT22;11720;51.214;22.574;2023-05-07T03:00:20;5.00;99.90
23102;DHT22;11720;51.214;22.574;2023-05-07T03:02:46;5.00;99.90
23102;DHT22;11720;51.214;22.574;2023-05-07T03:05:11;5.00;99.90
23102;DHT22;11720;51.214;22.574;2023-05-07T03:07:38;5.20;99.90
23102;DHT22;11720;51.214;22.574;2023-05-07T03:10:04;5.00;99.90
23102;DHT22;11720;51.214;22.574;2023-05-07T03:14:57;4.90;99.90
23102;DHT22;11720;51.214;22.574;2023-05-07T03:17:22;4.90;99.90
23102;DHT22;11720;51.214;22.574;2023-05-07T03:19:49;4.90;99.90
23102;DHT22;11720;51.214;22.574;2023-05-07T03:22:15;4.90;99.90
23102;DHT22;11720;51.214;22.574;2023-05-07T03:24:41;4.90;99.90
23102;DHT22;11720;51.214;22.574;2023-05-07T03:27:06;6.30;99.90
23102;DHT22;11720;51.214;22.574;2023-05-07T03:29:32;4.90;99.90
23102;DHT22;11720;51.214;22.574;2023-05-07T03:31:58;4.90;99.90
23102;DHT22;11720;51.214;22.574;2023-05-07T03:39:15;4.90;99.90
23102;DHT22;11720;51.214;22.574;2023-05-07T03:41:41;4.80;99.90
23102;DHT22;11720;51.214;22.574;2023-05-07T03:46:33;4.80;99.90
23102;DHT22;11720;51.214;22.574;2023-05-07T03:49:00;4.90;99.90
23102;DHT22;11720;51.214;22.574;2023-05-07T03:51:25;4.80;99.90
23102;DHT22;11720;51.214;22.574;2023-05-07T03:53:51;4.80;99.90
23102;DHT22;11720;51.214;22.574;2023-05-07T03:56:22;4.80;99.90
23102;DHT22;11720;51.214;22.574;2023-05-07T03:58:52;4.80;99.90
23102;DHT22;11720;51.214;22.574;2023-05-07T04:01:17;4.80;99.90
23102;DHT22;11720;51.214;22.574;2023-05-07T04:03:43;4.80;99.90
23102;DHT22;11720;51.214;22.574;2023-05-07T04:06:09;4.70;99.90
23102;DHT22;11720;51.214;22.574;2023-05-07T04:11:00;4.70;99.90
23102;DHT22;11720;51.214;22.574;2023-05-07T04:15:54;4.80;99.90
23102;DHT22;11720;51.214;22.574;2023-05-07T04:18:20;4.70;99.90
23102;DHT22;11720;51.214;22.574;2023-05-07T04:20:47;4.70;99.90
23102;DHT22;11720;51.214;22.574;2023-05-07T04:23:14;4.70;99.90
23102;DHT22;11720;51.214;22.574;2023-05-07T04:25:40;4.70;99.90
23102;DHT22;11720;51.214;22.574;2023-05-07T04:28:06;4.80;99.90
23102;DHT22;11720;51.214;22.574;2023-05-07T04:30:31;4.70;99.90
23102;DHT22;11720;51.214;22.574;2023-05-07T04:32:57;4.70;99.90
23102;DHT22;11720;51.214;22.574;2023-05-07T04:35:22;4.70;99.90
23102;DHT22;11720;51.214;22.574;2023-05-07T04:37:48;4.70;99.90
23102;DHT22;11720;51.214;22.574;2023-05-07T04:40:14;4.70;99.90
23102;DHT22;11720;51.214;22.574;2023-05-07T04:42:41;4.70;99.90
23102;DHT22;11720;51.214;22.574;2023-05-07T04:45:06;4.70;99.90
23102;DHT22;11720;51.214;22.574;2023-05-07T04:50:00;4.70;99.90
23102;DHT22;11720;51.214;22.574;2023-05-07T04:52:25;4.70;99.90
23102;DHT22;11720;51.214;22.574;2023-05-07T04:54:52;4.70;99.90
23102;DHT22;11720;51.214;22.574;2023-05-07T04:57:17;4.70;99.90
23102;DHT22;11720;51.214;22.574;2023-05-07T04:59:43;4.70;99.90
23102;DHT22;11720;51.214;22.574;2023-05-07T05:02:12;4.70;99.90
23102;DHT22;11720;51.214;22.574;2023-05-07T05:04:38;4.70;99.90
23102;DHT22;11720;51.214;22.574;2023-05-07T05:07:03;4.70;99.90
23102;DHT22;11720;51.214;22.574;2023-05-07T05:14:22;4.70;99.90
23102;DHT22;11720;51.214;22.574;2023-05-07T05:16:47;4.60;99.90
23102;DHT22;11720;51.214;22.574;2023-05-07T05:19:13;4.70;99.90
23102;DHT22;11720;51.214;22.574;2023-05-07T05:24:05;4.70;99.90
23102;DHT22;11720;51.214;22.574;2023-05-07T05:28:56;4.70;99.90
23102;DHT22;11720;51.214;22.574;2023-05-07T05:31:22;5.70;99.90
23102;DHT22;11720;51.214;22.574;2023-05-07T05:33:48;5.00;99.90
23102;DHT22;11720;51.214;22.574;2023-05-07T05:36:13;4.60;99.90
23102;DHT22;11720;51.214;22.574;2023-05-07T05:38:39;4.60;99.90
23102;DHT22;11720;51.214;22.574;2023-05-07T05:41:05;4.60;99.90
23102;DHT22;11720;51.214;22.574;2023-05-07T05:48:24;4.60;99.90
23102;DHT22;11720;51.214;22.574;2023-05-07T05:50:49;4.60;99.90
23102;DHT22;11720;51.214;22.574;2023-05-07T05:53:15;4.60;99.90
23102;DHT22;11720;51.214;22.574;2023-05-07T05:55:41;4.60;99.90
23102;DHT22;11720;51.214;22.574;2023-05-07T05:58:08;4.60;99.90
23102;DHT22;11720;51.214;22.574;2023-05-07T06:03:00;4.60;99.90
23102;DHT22;11720;51.214;22.574;2023-05-07T06:05:26;4.60;99.90
23102;DHT22;11720;51.214;22.574;2023-05-07T06:07:51;4.90;99.90
23102;DHT22;11720;51.214;22.574;2023-05-07T06:10:17;4.60;99.90
23102;DHT22;11720;51.214;22.574;2023-05-07T06:12:43;4.70;99.90
23102;DHT22;11720;51.214;22.574;2023-05-07T06:15:10;4.70;99.90
23102;DHT22;11720;51.214;22.574;2023-05-07T06:17:36;4.70;99.90
23102;DHT22;11720;51.214;22.574;2023-05-07T06:20:01;4.70;99.90
23102;DHT22;11720;51.214;22.574;2023-05-07T06:24:53;4.70;99.90
23102;DHT22;11720;51.214;22.574;2023-05-07T06:27:19;4.70;99.90
23102;DHT22;11720;51.214;22.574;2023-05-07T06:29:45;4.90;99.90
23102;DHT22;11720;51.214;22.574;2023-05-07T06:32:11;4.80;99.90
23102;DHT22;11720;51.214;22.574;2023-05-07T06:34:38;4.80;99.90
23102;DHT22;11720;51.214;22.574;2023-05-07T06:37:04;4.70;99.90
23102;DHT22;11720;51.214;22.574;2023-05-07T06:39:30;4.80;99.90
23102;DHT22;11720;51.214;22.574;2023-05-07T06:41:56;4.70;99.90
23102;DHT22;11720;51.214;22.574;2023-05-07T06:44:21;4.80;99.90
23102;DHT22;11720;51.214;22.574;2023-05-07T06:46:47;5.00;99.90
23102;DHT22;11720;51.214;22.574;2023-05-07T06:49:13;4.80;99.90
23102;DHT22;11720;51.214;22.574;2023-05-07T06:51:39;4.80;99.90
23102;DHT22;11720;51.214;22.574;2023-05-07T06:54:05;4.90;99.90
23102;DHT22;11720;51.214;22.574;2023-05-07T06:56:34;4.90;99.90
23102;DHT22;11720;51.214;22.574;2023-05-07T06:59:01;4.80;99.90
23102;DHT22;11720;51.214;22.574;2023-05-07T07:01:27;4.80;99.90
23102;DHT22;11720;51.214;22.574;2023-05-07T07:03:53;4.90;99.90
23102;DHT22;11720;51.214;22.574;2023-05-07T07:06:19;4.50;99.90
23102;DHT22;11720;51.214;22.574;2023-05-07T07:08:46;4.90;99.90
23102;DHT22;11720;51.214;22.574;2023-05-07T07:13:38;4.90;99.90
23102;DHT22;11720;51.214;22.574;2023-05-07T07:16:05;5.00;99.90
23102;DHT22;11720;51.214;22.574;2023-05-07T07:18:31;4.90;99.90
23102;DHT22;11720;51.214;22.574;2023-05-07T07:20:57;5.00;99.90
23102;DHT22;11720;51.214;22.574;2023-05-07T07:23:23;5.00;99.90
23102;DHT22;11720;51.214;22.574;2023-05-07T07:25:49;5.00;99.90
23102;DHT22;11720;51.214;22.574;2023-05-07T07:28:15;5.00;99.90
23102;DHT22;11720;51.214;22.574;2023-05-07T07:30:41;5.00;99.90
23102;DHT22;11720;51.214;22.574;2023-05-07T07:33:07;5.00;99.90
23102;DHT22;11720;51.214;22.574;2023-05-07T07:35:33;5.10;99.90
23102;DHT22;11720;51.214;22.574;2023-05-07T07:38:00;5.10;99.90
23102;DHT22;11720;51.214;22.574;2023-05-07T07:40:27;5.20;99.90
23102;DHT22;11720;51.214;22.574;2023-05-07T07:42:53;5.10;99.90
23102;DHT22;11720;51.214;22.574;2023-05-07T07:45:19;5.20;99.90
23102;DHT22;11720;51.214;22.574;2023-05-07T07:47:45;5.20;99.90
23102;DHT22;11720;51.214;22.574;2023-05-07T07:50:11;5.20;99.90
23102;DHT22;11720;51.214;22.574;2023-05-07T07:52:37;5.20;99.90
23102;DHT22;11720;51.214;22.574;2023-05-07T07:55:03;5.30;99.90
23102;DHT22;11720;51.214;22.574;2023-05-07T07:59:56;5.30;99.90
23102;DHT22;11720;51.214;22.574;2023-05-07T08:02:22;5.30;99.90
23102;DHT22;11720;51.214;22.574;2023-05-07T08:07:13;5.30;99.90
23102;DHT22;11720;51.214;22.574;2023-05-07T08:09:40;5.40;99.90
23102;DHT22;11720;51.214;22.574;2023-05-07T08:12:10;5.40;99.90
23102;DHT22;11720;51.214;22.574;2023-05-07T08:14:37;5.40;99.90
23102;DHT22;11720;51.214;22.574;2023-05-07T08:17:03;5.50;99.90
23102;DHT22;11720;51.214;22.574;2023-05-07T08:19:29;5.50;99.90
23102;DHT22;11720;51.214;22.574;2023-05-07T08:21:55;5.50;99.90
23102;DHT22;11720;51.214;22.574;2023-05-07T08:24:21;5.40;99.90
23102;DHT22;11720;51.214;22.574;2023-05-07T08:26:46;5.50;99.90
23102;DHT22;11720;51.214;22.574;2023-05-07T08:29:14;5.50;99.90
23102;DHT22;11720;51.214;22.574;2023-05-07T08:31:39;5.50;99.90
23102;DHT22;11720;51.214;22.574;2023-05-07T08:34:05;5.50;99.90
23102;DHT22;11720;51.214;22.574;2023-05-07T08:36:32;5.50;99.90
23102;DHT22;11720;51.214;22.574;2023-05-07T08:38:58;5.50;99.90
23102;DHT22;11720;51.214;22.574;2023-05-07T08:41:24;5.60;99.90
23102;DHT22;11720;51.214;22.574;2023-05-07T08:43:51;5.60;99.90
23102;DHT22;11720;51.214;22.574;2023-05-07T08:46:18;5.70;99.90
23102;DHT22;11720;51.214;22.574;2023-05-07T08:48:47;5.60;99.90
23102;DHT22;11720;51.214;22.574;2023-05-07T08:51:15;5.90;99.90
23102;DHT22;11720;51.214;22.574;2023-05-07T08:53:42;5.70;99.90
23102;DHT22;11720;51.214;22.574;2023-05-07T08:56:11;5.70;99.90
23102;DHT22;11720;51.214;22.574;2023-05-07T08:58:37;5.70;99.90
23102;DHT22;11720;51.214;22.574;2023-05-07T09:01:13;5.70;99.90
23102;DHT22;11720;51.214;22.574;2023-05-07T09:03:39;5.70;99.90
23102;DHT22;11720;51.214;22.574;2023-05-07T09:08:35;5.80;99.90
23102;DHT22;11720;51.214;22.574;2023-05-07T09:13:28;5.80;99.90
23102;DHT22;11720;51.214;22.574;2023-05-07T09:15:55;5.80;99.90
23102;DHT22;11720;51.214;22.574;2023-05-07T09:20:48;5.80;99.90
23102;DHT22;11720;51.214;22.574;2023-05-07T09:28:06;5.90;99.90
23102;DHT22;11720;51.214;22.574;2023-05-07T09:30:33;5.90;99.90
23102;DHT22;11720;51.214;22.574;2023-05-07T09:33:01;6.30;99.90
23102;DHT22;11720;51.214;22.574;2023-05-07T09:35:27;6.00;99.90
23102;DHT22;11720;51.214;22.574;2023-05-07T09:37:57;6.00;99.90
23102;DHT22;11720;51.214;22.574;2023-05-07T09:40:28;6.00;99.90
23102;DHT22;11720;51.214;22.574;2023-05-07T09:42:54;5.90;99.90
23102;DHT22;11720;51.214;22.574;2023-05-07T09:45:26;5.90;99.90
23102;DHT22;11720;51.214;22.574;2023-05-07T09:47:57;5.90;99.90
23102;DHT22;11720;51.214;22.574;2023-05-07T09:50:29;5.80;99.90
23102;DHT22;11720;51.214;22.574;2023-05-07T09:52:56;5.80;99.90
23102;DHT22;11720;51.214;22.574;2023-05-07T09:55:22;6.00;99.90
23102;DHT22;11720;51.214;22.574;2023-05-07T09:57:51;5.80;99.90
23102;DHT22;11720;51.214;22.574;2023-05-07T10:00:19;5.80;99.90
23102;DHT22;11720;51.214;22.574;2023-05-07T10:02:50;5.80;99.90
23102;DHT22;11720;51.214;22.574;2023-05-07T10:05:19;5.90;99.90
23102;DHT22;11720;51.214;22.574;2023-05-07T10:07:48;5.80;99.90
23102;DHT22;11720;51.214;22.574;2023-05-07T10:10:14;5.80;99.90
23102;DHT22;11720;51.214;22.574;2023-05-07T10:12:41;5.90;99.90
23102;DHT22;11720;51.214;22.574;2023-05-07T10:15:08;5.90;99.90
23102;DHT22;11720;51.214;22.574;2023-05-07T10:17:38;5.90;99.90
23102;DHT22;11720;51.214;22.574;2023-05-07T10:20:05;5.90;99.90
23102;DHT22;11720;51.214;22.574;2023-05-07T10:22:43;5.90;99.90
23102;DHT22;11720;51.214;22.574;2023-05-07T10:25:28;5.90;99.90
23102;DHT22;11720;51.214;22.574;2023-05-07T10:27:59;5.90;99.90
23102;DHT22;11720;51.214;22.574;2023-05-07T10:30:40;5.90;99.90
23102;DHT22;11720;51.214;22.574;2023-05-07T10:33:10;5.90;99.90
23102;DHT22;11720;51.214;22.574;2023-05-07T10:35:45;5.90;99.90
23102;DHT22;11720;51.214;22.574;2023-05-07T10:38:13;6.10;99.90
23102;DHT22;11720;51.214;22.574;2023-05-07T10:40:39;5.90;99.90
23102;DHT22;11720;51.214;22.574;2023-05-07T10:43:05;5.90;99.90
23102;DHT22;11720;51.214;22.574;2023-05-07T10:48:15;6.10;99.90
23102;DHT22;11720;51.214;22.574;2023-05-07T10:50:42;6.00;99.90
23102;DHT22;11720;51.214;22.574;2023-05-07T11:00:47;6.10;99.90
23102;DHT22;11720;51.214;22.574;2023-05-07T11:03:13;6.10;99.90
23102;DHT22;11720;51.214;22.574;2023-05-07T11:05:41;6.10;99.90
23102;DHT22;11720;51.214;22.574;2023-05-07T11:08:09;6.10;99.90
23102;DHT22;11720;51.214;22.574;2023-05-07T11:13:16;6.10;99.90
23102;DHT22;11720;51.214;22.574;2023-05-07T11:15:48;6.20;99.90
23102;DHT22;11720;51.214;22.574;2023-05-07T11:18:15;6.20;99.90
23102;DHT22;11720;51.214;22.574;2023-05-07T11:20:49;6.30;99.90
23102;DHT22;11720;51.214;22.574;2023-05-07T11:26:11;6.30;99.90
23102;DHT22;11720;51.214;22.574;2023-05-07T11:33:39;6.40;99.90
23102;DHT22;11720;51.214;22.574;2023-05-07T11:36:05;6.30;99.90
23102;DHT22;11720;51.214;22.574;2023-05-07T11:38:37;6.30;99.90
23102;DHT22;11720;51.214;22.574;2023-05-07T11:43:31;6.40;99.90
23102;DHT22;11720;51.214;22.574;2023-05-07T11:46:11;6.40;99.90
23102;DHT22;11720;51.214;22.574;2023-05-07T11:48:38;6.50;99.90
23102;DHT22;11720;51.214;22.574;2023-05-07T11:51:07;6.40;99.90
23102;DHT22;11720;51.214;22.574;2023-05-07T11:53:40;6.40;99.90
23102;DHT22;11720;51.214;22.574;2023-05-07T11:56:16;6.40;99.90
23102;DHT22;11720;51.214;22.574;2023-05-07T11:58:42;6.40;99.90
23102;DHT22;11720;51.214;22.574;2023-05-07T12:01:11;6.40;99.90
23102;DHT22;11720;51.214;22.574;2023-05-07T12:03:37;6.40;99.90
23102;DHT22;11720;51.214;22.574;2023-05-07T12:06:05;6.40;99.90
23102;DHT22;11720;51.214;22.574;2023-05-07T12:10:57;6.30;99.90
23102;DHT22;11720;51.214;22.574;2023-05-07T12:13:25;6.30;99.90
23102;DHT22;11720;51.214;22.574;2023-05-07T12:20:50;6.40;99.90
23102;DHT22;11720;51.214;22.574;2023-05-07T12:23:16;6.40;99.90
23102;DHT22;11720;51.214;22.574;2023-05-07T12:25:43;6.40;99.90
23102;DHT22;11720;51.214;22.574;2023-05-07T12:28:14;6.50;99.90
23102;DHT22;11720;51.214;22.574;2023-05-07T12:33:07;6.50;99.90
23102;DHT22;11720;51.214;22.574;2023-05-07T12:35:39;6.50;99.90
23102;DHT22;11720;51.214;22.574;2023-05-07T12:38:13;6.50;99.90
23102;DHT22;11720;51.214;22.574;2023-05-07T12:40:48;6.40;99.90
23102;DHT22;11720;51.214;22.574;2023-05-07T12:43:21;6.50;99.90
23102;DHT22;11720;51.214;22.574;2023-05-07T12:45:49;6.50;99.90
23102;DHT22;11720;51.214;22.574;2023-05-07T12:50:42;6.50;99.90
23102;DHT22;11720;51.214;22.574;2023-05-07T12:53:10;6.50;99.90
23102;DHT22;11720;51.214;22.574;2023-05-07T12:55:48;6.50;99.90
23102;DHT22;11720;51.214;22.574;2023-05-07T12:58:24;6.60;99.90
23102;DHT22;11720;51.214;22.574;2023-05-07T13:00:50;6.70;99.90
23102;DHT22;11720;51.214;22.574;2023-05-07T13:03:31;6.70;99.90
23102;DHT22;11720;51.214;22.574;2023-05-07T13:06:04;6.60;99.90
23102;DHT22;11720;51.214;22.574;2023-05-07T13:08:32;6.60;99.90
23102;DHT22;11720;51.214;22.574;2023-05-07T13:11:02;6.70;99.90
23102;DHT22;11720;51.214;22.574;2023-05-07T13:13:31;6.70;99.90
23102;DHT22;11720;51.214;22.574;2023-05-07T13:15:57;6.60;99.90
23102;DHT22;11720;51.214;22.574;2023-05-07T13:18:24;6.60;99.90
23102;DHT22;11720;51.214;22.574;2023-05-07T13:20:50;6.90;99.90
23102;DHT22;11720;51.214;22.574;2023-05-07T13:23:17;6.70;99.90
23102;DHT22;11720;51.214;22.574;2023-05-07T13:25:43;6.50;99.90
23102;DHT22;11720;51.214;22.574;2023-05-07T13:28:08;6.70;99.90
23102;DHT22;11720;51.214;22.574;2023-05-07T13:30:34;6.60;99.90
23102;DHT22;11720;51.214;22.574;2023-05-07T13:35:26;6.60;99.90
23102;DHT22;11720;51.214;22.574;2023-05-07T13:37:52;6.80;99.90
23102;DHT22;11720;51.214;22.574;2023-05-07T13:40:18;6.80;99.90
23102;DHT22;11720;51.214;22.574;2023-05-07T13:42:44;6.70;99.90
23102;DHT22;11720;51.214;22.574;2023-05-07T13:45:10;6.70;99.90
23102;DHT22;11720;51.214;22.574;2023-05-07T13:47:42;6.70;99.90
23102;DHT22;11720;51.214;22.574;2023-05-07T13:50:09;6.70;99.90
23102;DHT22;11720;51.214;22.574;2023-05-07T13:55:01;6.70;99.90
23102;DHT22;11720;51.214;22.574;2023-05-07T13:57:26;6.70;99.90
23102;DHT22;11720;51.214;22.574;2023-05-07T13:59:52;6.70;99.90
23102;DHT22;11720;51.214;22.574;2023-05-07T14:02:18;6.70;99.90
23102;DHT22;11720;51.214;22.574;2023-05-07T14:04:44;6.80;99.90
23102;DHT22;11720;51.214;22.574;2023-05-07T14:09:36;6.80;99.90
23102;DHT22;11720;51.214;22.574;2023-05-07T14:12:02;6.80;99.90
23102;DHT22;11720;51.214;22.574;2023-05-07T14:14:27;6.70;99.90
23102;DHT22;11720;51.214;22.574;2023-05-07T14:19:19;6.60;99.90
23102;DHT22;11720;51.214;22.574;2023-05-07T14:21:45;6.70;99.90
23102;DHT22;11720;51.214;22.574;2023-05-07T14:24:10;6.80;99.90
23102;DHT22;11720;51.214;22.574;2023-05-07T14:26:36;6.80;99.90
23102;DHT22;11720;51.214;22.574;2023-05-07T14:29:03;6.90;99.90
23102;DHT22;11720;51.214;22.574;2023-05-07T14:36:23;7.00;99.90
23102;DHT22;11720;51.214;22.574;2023-05-07T14:46:16;7.00;99.90
23102;DHT22;11720;51.214;22.574;2023-05-07T14:48:43;6.90;99.90
23102;DHT22;11720;51.214;22.574;2023-05-07T14:51:10;6.90;99.90
23102;DHT22;11720;51.214;22.574;2023-05-07T14:58:28;6.80;99.90
23102;DHT22;11720;51.214;22.574;2023-05-07T15:00:54;6.80;99.90
23102;DHT22;11720;51.214;22.574;2023-05-07T15:03:20;6.90;99.90
23102;DHT22;11720;51.214;22.574;2023-05-07T15:05:47;6.80;99.90
23102;DHT22;11720;51.214;22.574;2023-05-07T15:13:08;7.00;99.90
23102;DHT22;11720;51.214;22.574;2023-05-07T15:15:36;7.00;99.90
23102;DHT22;11720;51.214;22.574;2023-05-07T15:18:04;6.80;99.90
23102;DHT22;11720;51.214;22.574;2023-05-07T15:22:56;6.80;99.90
23102;DHT22;11720;51.214;22.574;2023-05-07T15:25:23;6.80;99.90
23102;DHT22;11720;51.214;22.574;2023-05-07T15:27:52;6.70;99.90
23102;DHT22;11720;51.214;22.574;2023-05-07T15:30:18;6.80;99.90
23102;DHT22;11720;51.214;22.574;2023-05-07T15:32:45;6.80;99.90
23102;DHT22;11720;51.214;22.574;2023-05-07T15:35:11;6.70;99.90
23102;DHT22;11720;51.214;22.574;2023-05-07T15:37:36;6.70;99.90
23102;DHT22;11720;51.214;22.574;2023-05-07T15:40:02;6.70;99.90
23102;DHT22;11720;51.214;22.574;2023-05-07T15:42:30;6.70;99.90
23102;DHT22;11720;51.214;22.574;2023-05-07T15:44:55;6.70;99.90
23102;DHT22;11720;51.214;22.574;2023-05-07T15:47:21;6.60;99.90
23102;DHT22;11720;51.214;22.574;2023-05-07T15:49:47;6.60;99.90
23102;DHT22;11720;51.214;22.574;2023-05-07T15:52:13;6.60;99.90
23102;DHT22;11720;51.214;22.574;2023-05-07T15:54:43;6.60;99.90
23102;DHT22;11720;51.214;22.574;2023-05-07T15:57:14;6.60;99.90
23102;DHT22;11720;51.214;22.574;2023-05-07T15:59:40;6.60;99.90
23102;DHT22;11720;51.214;22.574;2023-05-07T16:02:06;6.70;99.90
23102;DHT22;11720;51.214;22.574;2023-05-07T16:04:32;6.60;99.90
23102;DHT22;11720;51.214;22.574;2023-05-07T16:06:58;6.60;99.90
23102;DHT22;11720;51.214;22.574;2023-05-07T16:09:24;6.60;99.90
23102;DHT22;11720;51.214;22.574;2023-05-07T16:11:50;6.70;99.90
23102;DHT22;11720;51.214;22.574;2023-05-07T16:14:16;6.70;99.90
23102;DHT22;11720;51.214;22.574;2023-05-07T16:16:41;6.70;99.90
23102;DHT22;11720;51.214;22.574;2023-05-07T16:19:07;6.70;99.90
23102;DHT22;11720;51.214;22.574;2023-05-07T16:21:33;6.70;99.90
23102;DHT22;11720;51.214;22.574;2023-05-07T16:23:59;6.70;99.90
23102;DHT22;11720;51.214;22.574;2023-05-07T16:26:28;6.60;99.90
23102;DHT22;11720;51.214;22.574;2023-05-07T16:28:54;6.60;99.90
23102;DHT22;11720;51.214;22.574;2023-05-07T16:31:19;6.60;99.90
23102;DHT22;11720;51.214;22.574;2023-05-07T16:36:11;6.50;99.90
23102;DHT22;11720;51.214;22.574;2023-05-07T16:38:37;6.50;99.90
23102;DHT22;11720;51.214;22.574;2023-05-07T16:41:03;6.50;99.90
23102;DHT22;11720;51.214;22.574;2023-05-07T16:43:30;6.50;99.90
23102;DHT22;11720;51.214;22.574;2023-05-07T16:45:55;6.50;99.90
23102;DHT22;11720;51.214;22.574;2023-05-07T16:48:21;6.50;99.90
23102;DHT22;11720;51.214;22.574;2023-05-07T16:50:47;6.40;99.90
23102;DHT22;11720;51.214;22.574;2023-05-07T16:53:13;6.40;99.90
23102;DHT22;11720;51.214;22.574;2023-05-07T16:55:39;6.40;99.90
23102;DHT22;11720;51.214;22.574;2023-05-07T16:58:10;6.40;99.90
23102;DHT22;11720;51.214;22.574;2023-05-07T17:00:37;6.40;99.90
23102;DHT22;11720;51.214;22.574;2023-05-07T17:03:03;6.40;99.90
23102;DHT22;11720;51.214;22.574;2023-05-07T17:05:30;6.40;99.90
23102;DHT22;11720;51.214;22.574;2023-05-07T17:07:55;6.30;99.90
23102;DHT22;11720;51.214;22.574;2023-05-07T17:10:22;6.30;99.90
23102;DHT22;11720;51.214;22.574;2023-05-07T17:17:40;6.40;99.90
23102;DHT22;11720;51.214;22.574;2023-05-07T17:20:06;6.40;99.90
23102;DHT22;11720;51.214;22.574;2023-05-07T17:22:32;6.30;99.90
23102;DHT22;11720;51.214;22.574;2023-05-07T17:24:58;6.30;99.90
23102;DHT22;11720;51.214;22.574;2023-05-07T17:27:25;6.30;99.90
23102;DHT22;11720;51.214;22.574;2023-05-07T17:29:51;6.30;99.90
23102;DHT22;11720;51.214;22.574;2023-05-07T17:32:16;6.30;99.90
23102;DHT22;11720;51.214;22.574;2023-05-07T17:39:35;6.60;99.90
23102;DHT22;11720;51.214;22.574;2023-05-07T17:42:00;6.50;99.90
23102;DHT22;11720;51.214;22.574;2023-05-07T17:44:26;6.50;99.90
23102;DHT22;11720;51.214;22.574;2023-05-07T17:46:51;6.30;99.90
23102;DHT22;11720;51.214;22.574;2023-05-07T17:51:43;6.30;99.90
23102;DHT22;11720;51.214;22.574;2023-05-07T17:54:09;6.20;99.90
23102;DHT22;11720;51.214;22.574;2023-05-07T17:56:36;6.50;99.90
23102;DHT22;11720;51.214;22.574;2023-05-07T17:59:02;6.10;99.90
23102;DHT22;11720;51.214;22.574;2023-05-07T18:01:28;6.10;99.90